WAT369 EDDP-LOWW
Flight info
| Callsign | WAT369 |
|---|---|
| Flight time | 0h 52m |
| Altitude | 29000 |
| Route | DRN2N DRN Z21 OMELO DCT EVIKU DCT BITSI DCT MIKOV MIKOV8W |
| Aircraft | MD11/H-SDE1E2E3FGHIJ2J3J4J5M1RWXY/LB1D1 |
Departure
| Time | 2026-04-22 20:35 |
|---|---|
| Airport | Leipzig/Halle Airport (EDDP) |
Arrival
| Time | 2026-04-22 21:28 |
|---|---|
| Airport | Vienna International Airport (LOWW) |
| Time | Latitude | Longitude | Altitude | Speed | Heading |
|---|---|---|---|---|---|
| 2026-04-22 20:11 | 51.40819 | 12.24044 | 472 ft | 0 kts | 265° |
| 2026-04-22 20:16 | 51.40819 | 12.24045 | 472 ft | 0 kts | 265° |
| 2026-04-22 20:26 | 51.40820 | 12.24060 | 472 ft | 4 kts | 265° |
| 2026-04-22 20:26 | 51.40822 | 12.24098 | 468 ft | 4 kts | 269° |
| 2026-04-22 20:26 | 51.40819 | 12.24132 | 467 ft | 4 kts | 311° |
| 2026-04-22 20:26 | 51.40804 | 12.24149 | 466 ft | 4 kts | 355° |
| 2026-04-22 20:27 | 51.40782 | 12.24150 | 466 ft | 0 kts | 356° |
| 2026-04-22 20:29 | 51.40790 | 12.24150 | 466 ft | 6 kts | 356° |
| 2026-04-22 20:29 | 51.40923 | 12.24135 | 467 ft | 27 kts | 356° |
| 2026-04-22 20:30 | 51.41050 | 12.24138 | 472 ft | 7 kts | 25° |
| 2026-04-22 20:30 | 51.41061 | 12.24160 | 468 ft | 3 kts | 63° |
| 2026-04-22 20:30 | 51.41082 | 12.24333 | 473 ft | 32 kts | 85° |
| 2026-04-22 20:30 | 51.41101 | 12.24748 | 471 ft | 37 kts | 85° |
| 2026-04-22 20:31 | 51.41120 | 12.25138 | 476 ft | 34 kts | 85° |
| 2026-04-22 20:31 | 51.41138 | 12.25499 | 482 ft | 32 kts | 85° |
| 2026-04-22 20:31 | 51.41184 | 12.25626 | 477 ft | 3 kts | 14° |
| 2026-04-22 20:31 | 51.41234 | 12.25623 | 474 ft | 10 kts | 355° |
| 2026-04-22 20:32 | 51.41243 | 12.25621 | 476 ft | 1 kts | 355° |
| 2026-04-22 20:32 | 51.41249 | 12.25620 | 479 ft | 0 kts | 355° |
| 2026-04-22 20:33 | 51.41250 | 12.25620 | 479 ft | 0 kts | 355° |
| 2026-04-22 20:34 | 51.41269 | 12.25617 | 478 ft | 9 kts | 355° |
| 2026-04-22 20:34 | 51.41354 | 12.25567 | 472 ft | 11 kts | 322° |
| 2026-04-22 20:34 | 51.41394 | 12.25449 | 476 ft | 12 kts | 282° |
| 2026-04-22 20:34 | 51.41390 | 12.25262 | 472 ft | 23 kts | 266° |
| 2026-04-22 20:35 | 51.41352 | 12.24502 | 476 ft | 125 kts | 265° |
| 2026-04-22 20:35 | 51.41263 | 12.22677 | 813 ft | 188 kts | 265° |
| 2026-04-22 20:35 | 51.41133 | 12.20630 | 2374 ft | 170 kts | 269° |
| 2026-04-22 20:35 | 51.41041 | 12.18777 | 4072 ft | 169 kts | 270° |
| 2026-04-22 20:36 | 51.40943 | 12.16756 | 5314 ft | 198 kts | 268° |
| 2026-04-22 20:36 | 51.40796 | 12.14438 | 6299 ft | 229 kts | 268° |
| 2026-04-22 20:36 | 51.40614 | 12.11761 | 6725 ft | 248 kts | 266° |
| 2026-04-22 20:36 | 51.40196 | 12.09022 | 7260 ft | 265 kts | 251° |
| 2026-04-22 20:37 | 51.39015 | 12.06674 | 8052 ft | 285 kts | 216° |
| 2026-04-22 20:37 | 51.37134 | 12.05599 | 9111 ft | 295 kts | 185° |
| 2026-04-22 20:37 | 51.35098 | 12.05997 | 10189 ft | 299 kts | 158° |
| 2026-04-22 20:37 | 51.33249 | 12.07680 | 10726 ft | 322 kts | 136° |
| 2026-04-22 20:38 | 51.31794 | 12.10605 | 10883 ft | 352 kts | 113° |
| 2026-04-22 20:38 | 51.31135 | 12.14372 | 11747 ft | 353 kts | 93° |
| 2026-04-22 20:38 | 51.31011 | 12.18309 | 12845 ft | 355 kts | 88° |
| 2026-04-22 20:38 | 51.31005 | 12.22279 | 13966 ft | 360 kts | 88° |
| 2026-04-22 20:39 | 51.30877 | 12.26298 | 14998 ft | 364 kts | 93° |
| 2026-04-22 20:39 | 51.30514 | 12.30332 | 16011 ft | 369 kts | 98° |
| 2026-04-22 20:39 | 51.29944 | 12.34366 | 17025 ft | 374 kts | 102° |
| 2026-04-22 20:39 | 51.29230 | 12.38392 | 18001 ft | 381 kts | 104° |
| 2026-04-22 20:40 | 51.28426 | 12.42442 | 18409 ft | 387 kts | 105° |
| 2026-04-22 20:40 | 51.27586 | 12.46370 | 18783 ft | 363 kts | 106° |
| 2026-04-22 20:40 | 51.26731 | 12.50264 | 18952 ft | 383 kts | 106° |
| 2026-04-22 20:40 | 51.25838 | 12.54299 | 19717 ft | 388 kts | 107° |
| 2026-04-22 20:41 | 51.24925 | 12.58394 | 20575 ft | 393 kts | 107° |
| 2026-04-22 20:41 | 51.24002 | 12.62530 | 21412 ft | 397 kts | 107° |
| 2026-04-22 20:41 | 51.23067 | 12.66709 | 22240 ft | 401 kts | 107° |
| 2026-04-22 20:41 | 51.22123 | 12.70918 | 23060 ft | 406 kts | 107° |
| 2026-04-22 20:42 | 51.21166 | 12.75183 | 23858 ft | 410 kts | 108° |
| 2026-04-22 20:42 | 51.20211 | 12.79430 | 24556 ft | 413 kts | 108° |
| 2026-04-22 20:42 | 51.19239 | 12.83746 | 25318 ft | 415 kts | 107° |
| 2026-04-22 20:42 | 51.18257 | 12.88094 | 26074 ft | 417 kts | 108° |
| 2026-04-22 20:43 | 51.17270 | 12.92458 | 26828 ft | 420 kts | 108° |
| 2026-04-22 20:43 | 51.16277 | 12.96843 | 27549 ft | 422 kts | 107° |
| 2026-04-22 20:43 | 51.15274 | 13.01265 | 28102 ft | 428 kts | 107° |
| 2026-04-22 20:43 | 51.14254 | 13.05749 | 28513 ft | 431 kts | 107° |
| 2026-04-22 20:44 | 51.13232 | 13.10229 | 28922 ft | 430 kts | 107° |
| 2026-04-22 20:44 | 51.12208 | 13.14705 | 29231 ft | 431 kts | 107° |
| 2026-04-22 20:44 | 51.11183 | 13.19177 | 29283 ft | 420 kts | 107° |
| 2026-04-22 20:44 | 51.10216 | 13.23365 | 29291 ft | 398 kts | 107° |
| 2026-04-22 20:45 | 51.09275 | 13.27438 | 29298 ft | 387 kts | 107° |
| 2026-04-22 20:45 | 51.07396 | 13.35439 | 29300 ft | 386 kts | 107° |
| 2026-04-22 20:46 | 51.04582 | 13.47424 | 29298 ft | 385 kts | 107° |
| 2026-04-22 20:46 | 51.02716 | 13.55418 | 29296 ft | 385 kts | 107° |
| 2026-04-22 20:47 | 51.00391 | 13.63073 | 29303 ft | 389 kts | 117° |
| 2026-04-22 20:47 | 50.97502 | 13.70368 | 29299 ft | 390 kts | 118° |
| 2026-04-22 20:48 | 50.94568 | 13.77628 | 29291 ft | 390 kts | 118° |
| 2026-04-22 20:48 | 50.91429 | 13.84677 | 29288 ft | 392 kts | 123° |
| 2026-04-22 20:49 | 50.88647 | 13.90356 | 29286 ft | 393 kts | 123° |
| 2026-04-22 20:49 | 50.85276 | 13.97177 | 29286 ft | 392 kts | 124° |
| 2026-04-22 20:50 | 50.81517 | 14.03449 | 29273 ft | 397 kts | 132° |
| 2026-04-22 20:50 | 50.77415 | 14.09343 | 29276 ft | 398 kts | 133° |
| 2026-04-22 20:51 | 50.73305 | 14.15204 | 29290 ft | 398 kts | 132° |
| 2026-04-22 20:51 | 50.69208 | 14.21092 | 29277 ft | 398 kts | 132° |
| 2026-04-22 20:52 | 50.65117 | 14.26983 | 29272 ft | 398 kts | 132° |
| 2026-04-22 20:52 | 50.61047 | 14.32834 | 29272 ft | 398 kts | 132° |
| 2026-04-22 20:53 | 50.56950 | 14.38711 | 29274 ft | 398 kts | 132° |
| 2026-04-22 20:53 | 50.52850 | 14.44579 | 29272 ft | 398 kts | 133° |
| 2026-04-22 20:54 | 50.48751 | 14.50428 | 29271 ft | 398 kts | 133° |
| 2026-04-22 20:54 | 50.44681 | 14.56332 | 29273 ft | 398 kts | 131° |
| 2026-04-22 20:55 | 50.40701 | 14.62355 | 29279 ft | 397 kts | 130° |
| 2026-04-22 20:55 | 50.36763 | 14.68357 | 29255 ft | 396 kts | 130° |
| 2026-04-22 20:56 | 50.32810 | 14.74366 | 29276 ft | 396 kts | 130° |
| 2026-04-22 20:56 | 50.28850 | 14.80367 | 29275 ft | 396 kts | 130° |
| 2026-04-22 20:57 | 50.24883 | 14.86362 | 29297 ft | 396 kts | 130° |
| 2026-04-22 20:57 | 50.20909 | 14.92352 | 29272 ft | 397 kts | 130° |
| 2026-04-22 20:58 | 50.16932 | 14.98333 | 29268 ft | 397 kts | 130° |
| 2026-04-22 20:58 | 50.12976 | 15.04266 | 29265 ft | 397 kts | 130° |
| 2026-04-22 20:59 | 50.08994 | 15.10225 | 29260 ft | 396 kts | 130° |
| 2026-04-22 20:59 | 50.05004 | 15.16181 | 29256 ft | 397 kts | 130° |
| 2026-04-22 21:00 | 50.01344 | 15.21632 | 29276 ft | 397 kts | 130° |
| 2026-04-22 21:00 | 49.97340 | 15.27583 | 29263 ft | 398 kts | 130° |
| 2026-04-22 21:01 | 49.93332 | 15.33523 | 29258 ft | 398 kts | 130° |
| 2026-04-22 21:01 | 49.89336 | 15.39430 | 29259 ft | 398 kts | 130° |
| 2026-04-22 21:02 | 49.85309 | 15.45347 | 29251 ft | 399 kts | 131° |
| 2026-04-22 21:02 | 49.81257 | 15.51243 | 29258 ft | 397 kts | 131° |
| 2026-04-22 21:03 | 49.77262 | 15.57078 | 29257 ft | 397 kts | 130° |
| 2026-04-22 21:03 | 49.73246 | 15.62955 | 29251 ft | 397 kts | 130° |
| 2026-04-22 21:04 | 49.69221 | 15.68834 | 29251 ft | 397 kts | 130° |
| 2026-04-22 21:04 | 49.65197 | 15.74700 | 29251 ft | 397 kts | 130° |
| 2026-04-22 21:05 | 49.61191 | 15.80523 | 29253 ft | 397 kts | 130° |
| 2026-04-22 21:05 | 49.57164 | 15.86365 | 29250 ft | 397 kts | 130° |
| 2026-04-22 21:06 | 49.53133 | 15.92199 | 29263 ft | 400 kts | 130° |
| 2026-04-22 21:06 | 49.51070 | 15.95189 | 29256 ft | 416 kts | 130° |
| 2026-04-22 21:06 | 49.48920 | 15.98310 | 29247 ft | 433 kts | 131° |
| 2026-04-22 21:07 | 49.46694 | 16.01529 | 29244 ft | 444 kts | 131° |
| 2026-04-22 21:07 | 49.44446 | 16.04755 | 29224 ft | 438 kts | 131° |
| 2026-04-22 21:07 | 49.42239 | 16.07906 | 27939 ft | 433 kts | 131° |
| 2026-04-22 21:07 | 49.40054 | 16.11034 | 26503 ft | 433 kts | 131° |
| 2026-04-22 21:08 | 49.37866 | 16.14161 | 25288 ft | 427 kts | 131° |
| 2026-04-22 21:08 | 49.35707 | 16.17244 | 24124 ft | 421 kts | 131° |
| 2026-04-22 21:08 | 49.33578 | 16.20284 | 22819 ft | 416 kts | 132° |
| 2026-04-22 21:08 | 49.31321 | 16.23079 | 21523 ft | 417 kts | 141° |
| 2026-04-22 21:09 | 49.28813 | 16.25272 | 21106 ft | 421 kts | 147° |
| 2026-04-22 21:09 | 49.26190 | 16.27261 | 20721 ft | 418 kts | 149° |
| 2026-04-22 21:09 | 49.23556 | 16.29161 | 20290 ft | 415 kts | 149° |
| 2026-04-22 21:09 | 49.20955 | 16.31023 | 19077 ft | 412 kts | 150° |
| 2026-04-22 21:10 | 49.18372 | 16.32891 | 17880 ft | 409 kts | 150° |
| 2026-04-22 21:10 | 49.15868 | 16.34719 | 17222 ft | 400 kts | 150° |
| 2026-04-22 21:10 | 49.13325 | 16.36596 | 16829 ft | 403 kts | 150° |
| 2026-04-22 21:10 | 49.10795 | 16.38468 | 16442 ft | 403 kts | 150° |
| 2026-04-22 21:11 | 49.08275 | 16.40334 | 16173 ft | 402 kts | 150° |
| 2026-04-22 21:11 | 49.05770 | 16.42189 | 16014 ft | 400 kts | 150° |
| 2026-04-22 21:11 | 49.03514 | 16.43859 | 15990 ft | 400 kts | 150° |
| 2026-04-22 21:11 | 49.01010 | 16.45711 | 15989 ft | 400 kts | 150° |
| 2026-04-22 21:12 | 48.98536 | 16.47538 | 15984 ft | 400 kts | 150° |
| 2026-04-22 21:12 | 48.96030 | 16.49387 | 15987 ft | 400 kts | 150° |
| 2026-04-22 21:12 | 48.93526 | 16.51232 | 15912 ft | 397 kts | 150° |
| 2026-04-22 21:12 | 48.91024 | 16.53073 | 15974 ft | 399 kts | 150° |
| 2026-04-22 21:13 | 48.88871 | 16.54655 | 15981 ft | 400 kts | 150° |
| 2026-04-22 21:13 | 48.86370 | 16.56491 | 15984 ft | 400 kts | 150° |
| 2026-04-22 21:13 | 48.83881 | 16.58314 | 15412 ft | 393 kts | 150° |
| 2026-04-22 21:13 | 48.81419 | 16.60117 | 14274 ft | 392 kts | 151° |
| 2026-04-22 21:14 | 48.78924 | 16.61775 | 13175 ft | 389 kts | 159° |
| 2026-04-22 21:14 | 48.76344 | 16.62901 | 12782 ft | 392 kts | 163° |
| 2026-04-22 21:14 | 48.73704 | 16.63826 | 12386 ft | 387 kts | 166° |
| 2026-04-22 21:14 | 48.71074 | 16.64669 | 12057 ft | 378 kts | 166° |
| 2026-04-22 21:15 | 48.68669 | 16.65419 | 11916 ft | 330 kts | 166° |
| 2026-04-22 21:15 | 48.66508 | 16.66098 | 11447 ft | 311 kts | 166° |
| 2026-04-22 21:15 | 48.64417 | 16.66772 | 10942 ft | 304 kts | 166° |
| 2026-04-22 21:15 | 48.62371 | 16.67439 | 9981 ft | 300 kts | 166° |
| 2026-04-22 21:16 | 48.60340 | 16.68105 | 8886 ft | 296 kts | 166° |
| 2026-04-22 21:16 | 48.58363 | 16.68729 | 7859 ft | 292 kts | 170° |
| 2026-04-22 21:16 | 48.56347 | 16.68927 | 7101 ft | 285 kts | 179° |
| 2026-04-22 21:16 | 48.54341 | 16.68866 | 6720 ft | 291 kts | 181° |
| 2026-04-22 21:17 | 48.52326 | 16.68756 | 6326 ft | 290 kts | 182° |
| 2026-04-22 21:17 | 48.50311 | 16.68635 | 6030 ft | 288 kts | 182° |
| 2026-04-22 21:17 | 48.48347 | 16.68518 | 5977 ft | 272 kts | 182° |
| 2026-04-22 21:17 | 48.46568 | 16.68412 | 5938 ft | 238 kts | 182° |
| 2026-04-22 21:18 | 48.45026 | 16.68320 | 5941 ft | 210 kts | 182° |
| 2026-04-22 21:18 | 48.43586 | 16.68237 | 5954 ft | 204 kts | 182° |
| 2026-04-22 21:18 | 48.42201 | 16.68157 | 5948 ft | 191 kts | 182° |
| 2026-04-22 21:18 | 48.40932 | 16.68084 | 5930 ft | 183 kts | 182° |
| 2026-04-22 21:19 | 48.39662 | 16.68011 | 5978 ft | 182 kts | 182° |
| 2026-04-22 21:19 | 48.38399 | 16.67939 | 5952 ft | 181 kts | 182° |
| 2026-04-22 21:19 | 48.37142 | 16.67868 | 5976 ft | 181 kts | 182° |
| 2026-04-22 21:19 | 48.35879 | 16.67796 | 5964 ft | 182 kts | 182° |
| 2026-04-22 21:20 | 48.34756 | 16.67732 | 5960 ft | 182 kts | 182° |
| 2026-04-22 21:20 | 48.33487 | 16.67660 | 5968 ft | 182 kts | 182° |
| 2026-04-22 21:20 | 48.32223 | 16.67588 | 5967 ft | 181 kts | 182° |
| 2026-04-22 21:20 | 48.30976 | 16.67517 | 5962 ft | 182 kts | 182° |
| 2026-04-22 21:21 | 48.29712 | 16.67447 | 5962 ft | 181 kts | 182° |
| 2026-04-22 21:21 | 48.28457 | 16.67376 | 5963 ft | 180 kts | 182° |
| 2026-04-22 21:21 | 48.27198 | 16.67304 | 5958 ft | 181 kts | 182° |
| 2026-04-22 21:21 | 48.25937 | 16.67299 | 5910 ft | 182 kts | 172° |
| 2026-04-22 21:22 | 48.24702 | 16.67630 | 5807 ft | 180 kts | 167° |
| 2026-04-22 21:22 | 48.23473 | 16.68017 | 5689 ft | 179 kts | 166° |
| 2026-04-22 21:22 | 48.22250 | 16.68416 | 5439 ft | 179 kts | 165° |
| 2026-04-22 21:22 | 48.21048 | 16.68830 | 5052 ft | 176 kts | 165° |
| 2026-04-22 21:23 | 48.19877 | 16.69226 | 4672 ft | 174 kts | 165° |
| 2026-04-22 21:23 | 48.18696 | 16.69638 | 4308 ft | 173 kts | 165° |
| 2026-04-22 21:23 | 48.17523 | 16.70048 | 3809 ft | 172 kts | 164° |
| 2026-04-22 21:23 | 48.16365 | 16.70469 | 3261 ft | 170 kts | 165° |
| 2026-04-22 21:24 | 48.15221 | 16.70824 | 2957 ft | 170 kts | 169° |
| 2026-04-22 21:24 | 48.14060 | 16.71032 | 2833 ft | 167 kts | 174° |
| 2026-04-22 21:24 | 48.12886 | 16.71129 | 2870 ft | 168 kts | 181° |
| 2026-04-22 21:24 | 48.11727 | 16.70896 | 2960 ft | 168 kts | 197° |
| 2026-04-22 21:25 | 48.10712 | 16.70181 | 3004 ft | 164 kts | 220° |
| 2026-04-22 21:25 | 48.09915 | 16.68993 | 3026 ft | 161 kts | 240° |
| 2026-04-22 21:25 | 48.09345 | 16.67576 | 2787 ft | 156 kts | 253° |
| 2026-04-22 21:25 | 48.09038 | 16.66145 | 2424 ft | 151 kts | 267° |
| 2026-04-22 21:26 | 48.08966 | 16.64623 | 1965 ft | 143 kts | 282° |
| 2026-04-22 21:26 | 48.09139 | 16.63181 | 1469 ft | 138 kts | 292° |
| 2026-04-22 21:26 | 48.09492 | 16.61870 | 1194 ft | 136 kts | 296° |
| 2026-04-22 21:26 | 48.09891 | 16.60625 | 1080 ft | 135 kts | 298° |
| 2026-04-22 21:27 | 48.10149 | 16.59865 | 962 ft | 136 kts | 298° |
| 2026-04-22 21:27 | 48.10523 | 16.58698 | 790 ft | 133 kts | 298° |
| 2026-04-22 21:27 | 48.10909 | 16.57547 | 653 ft | 134 kts | 297° |
| 2026-04-22 21:27 | 48.11172 | 16.56763 | 643 ft | 104 kts | 295° |
| 2026-04-22 21:28 | 48.11438 | 16.55950 | 634 ft | 69 kts | 296° |
| 2026-04-22 21:28 | 48.11592 | 16.55465 | 626 ft | 45 kts | 295° |
| 2026-04-22 21:28 | 48.11732 | 16.55036 | 627 ft | 52 kts | 296° |
| 2026-04-22 21:28 | 48.11902 | 16.54518 | 622 ft | 53 kts | 296° |
| 2026-04-22 21:29 | 48.12054 | 16.54054 | 624 ft | 46 kts | 295° |
| 2026-04-22 21:29 | 48.12184 | 16.53646 | 619 ft | 40 kts | 296° |
| 2026-04-22 21:29 | 48.12281 | 16.53431 | 623 ft | 17 kts | 332° |
| 2026-04-22 21:29 | 48.12372 | 16.53434 | 613 ft | 13 kts | 16° |
| 2026-04-22 21:30 | 48.12465 | 16.53483 | 612 ft | 15 kts | 14° |
| 2026-04-22 21:30 | 48.12557 | 16.53513 | 601 ft | 11 kts | 22° |
| 2026-04-22 21:30 | 48.12630 | 16.53558 | 599 ft | 11 kts | 21° |
| 2026-04-22 21:30 | 48.12673 | 16.53561 | 598 ft | 1 kts | 339° |
| 2026-04-22 21:31 | 48.12675 | 16.53554 | 598 ft | 0 kts | 313° |
| 2026-04-22 21:31 | 48.12688 | 16.53530 | 579 ft | 0 kts | 306° |